Main page
METAR-TAF:

METAR-TAF

Airports :

Pula, Croatia

Pula Airport

latitude: 44-54N, longitude: 013-55E, elevation: 63 m

Current weather observation

The report was made 31 minutes ago, at 20:30 UTC
Wind 4 kt from the Southeast, varying between East/Southeast and South
Temperature 3°C
Humidity 87%
Pressure 1007 hPa
Visibility 10 km or more

METAR: LDPL 202030Z AUTO 14004KT 120V170 9999 FEW027/// 03/01 Q1007

Time: 22:01 (21:01 UTC)

Forecast

The report was made 3 hours and 35 minutes ago, at 17:26 UTC
Forecast valid from 20 at 18 UTC to 21 at 18 UTC
Wind 2 kt from variable directions
Visibility 10 km or more
no clouds below 1500 m and no cumulonimbus
Becoming
from 20 at 22 UTC to 21 at 00 UTC
Wind 10 kt from the West/Southwest
Becoming
from 21 at 06 UTC to 21 at 08 UTC
Wind 10 kt from the West/Northwest
Becoming
from 21 at 16 UTC to 21 at 18 UTC
Wind 10 kt from the North/Northeast

TAF: LDPL 201726Z 2018/2118 VRB02KT CAVOK TX11/2112Z TN03/2019Z BECMG 2022/2100 24010KT BECMG 2106/2108 30010KT BECMG 2116/2118 03010KT

Weather observations and forecasts of more than 4000 airports (METAR and TAF reports).

The available stations are represented by yellow and red dots on the map.

Hover mouse over dot to see the name of the station.

Then click to see weather observations and forecasts.

To change the map : click on the green buttons with a black cross to zoom in, on the green button with a dash to zoom out, or on the green arrows for adjacent maps.


METAR-TAF: